Huvudsida
METAR-TAF:

METAR-TAF

Flygplatser :

Lima, Peru

latitud: 12-00S, longitud: 077-07W, höjd: 12 m

Aktuellt väderrapport

Denna rapport gjordes för 34 minuter sedan, klockan 03:00 UTC
Vind 9 kt från syd/sydost
Temperatur 25°C
Fuktighet 74%
Tryck 1014 hPa
Sikt 10 km eller mer
Inga moln under 1 500 m eller inga cumulonimbus

METAR: SPJC 250300Z 16009KT CAVOK 25/20 Q1014 NOSIG RMK PP000

Tid: 22:34 (03:34 UTC)

Väderprognos

Denna rapport gjordes för 4 timmar och 34 minuter sedan, klockan 23:00 UTC
Prognos gäller från 25 kl. 00 UTC till 25 kl. 24 UTC
Vind 10 kt från syd
Sikt 10 km eller mer
Brutna moln på en höjd av 15000 ft
Från 25 kl. 0500 UTC
Vind 5 kt från syd
Sikt 10 km eller mer
Spridda moln på en höjd av 1000 ft
Från 25 kl. 1500 UTC
Vind 10 kt från syd
Sikt 10 km eller mer
Inga moln under 1 500 m eller inga cumulonimbus

TAF: SPJC 242300Z 2500/2524 17010KT 9999 BKN150 TX29/2519Z TN19/2511Z FM250500 17005KT 9999 SCT010 FM251500 18010KT CAVOK

Aktuella väderrapporter och prognoser från 4000 flygplatser (METAR- och TAF-rapporter).

De tillgängliga stationerna syns som gula och röda prickar på kartan.

För musen över prickarna för att se namnen på stationerna.

Klicka sedan för att få väderrapporter och prognoser.

För att ändra kartan: Klicka på de gröna knapparna med ett svart kors på för att zooma in; den gröna knappen med ett streck på för att zooma ut; eller på de gröna pilarna för angränsande kartor.


METAR-TAF: